GKO01DH EDJA-EDDH
Flight info
| Callsign | GKO01DH |
|---|---|
| Flight time | 1h 15m |
| Altitude | 37000 |
| Route | KPT4B KPT L856 NEGRA DCT LOKTA N851 TEDGO N624 NIKUT T726 TOSTU P605 NOLGO NOLGO6A |
| Aircraft | B738/M-SDE2E3FGHIRWXY/LB1 |
Departure
| Time | 2026-05-05 19:39 |
|---|---|
| Airport | Memmingen Allgau Airport (EDJA) |
Arrival
| Time | 2026-05-05 20:54 |
|---|---|
| Airport | Hamburg Helmut Schmidt Airport (EDDH) |
| Time | Latitude | Longitude | Altitude | Speed | Heading |
|---|---|---|---|---|---|
| 2026-05-05 18:56 | 47.98872 | 10.23246 | 2072 ft | 0 kts | 51° |
| 2026-05-05 19:29 | 47.98872 | 10.23247 | 2072 ft | 1 kts | 51° |
| 2026-05-05 19:30 | 47.98864 | 10.23285 | 2072 ft | 7 kts | 134° |
| 2026-05-05 19:30 | 47.98859 | 10.23293 | 2072 ft | 0 kts | 133° |
| 2026-05-05 19:30 | 47.98859 | 10.23294 | 2072 ft | 0 kts | 133° |
| 2026-05-05 19:30 | 47.98858 | 10.23295 | 2072 ft | 2 kts | 133° |
| 2026-05-05 19:31 | 47.98851 | 10.23366 | 2072 ft | 12 kts | 77° |
| 2026-05-05 19:31 | 47.98885 | 10.23513 | 2072 ft | 17 kts | 71° |
| 2026-05-05 19:31 | 47.98911 | 10.23663 | 2072 ft | 13 kts | 97° |
| 2026-05-05 19:31 | 47.98901 | 10.23700 | 2072 ft | 0 kts | 131° |
| 2026-05-05 19:36 | 47.98859 | 10.23753 | 2072 ft | 18 kts | 136° |
| 2026-05-05 19:37 | 47.98877 | 10.23929 | 2072 ft | 22 kts | 61° |
| 2026-05-05 19:37 | 47.98974 | 10.24173 | 2072 ft | 34 kts | 60° |
| 2026-05-05 19:37 | 47.99106 | 10.24497 | 2072 ft | 39 kts | 59° |
| 2026-05-05 19:37 | 47.99243 | 10.24844 | 2072 ft | 39 kts | 59° |
| 2026-05-05 19:38 | 47.99381 | 10.25185 | 2072 ft | 36 kts | 62° |
| 2026-05-05 19:38 | 47.99476 | 10.25376 | 2072 ft | 15 kts | 107° |
| 2026-05-05 19:38 | 47.99418 | 10.25340 | 2072 ft | 18 kts | 249° |
| 2026-05-05 19:38 | 47.99261 | 10.24916 | 2072 ft | 78 kts | 241° |
| 2026-05-05 19:39 | 47.98887 | 10.23963 | 2072 ft | 134 kts | 240° |
| 2026-05-05 19:39 | 47.98331 | 10.22563 | 2194 ft | 172 kts | 240° |
| 2026-05-05 19:39 | 47.97727 | 10.20940 | 2738 ft | 186 kts | 240° |
| 2026-05-05 19:39 | 47.97092 | 10.19294 | 3681 ft | 178 kts | 239° |
| 2026-05-05 19:40 | 47.96488 | 10.17713 | 4576 ft | 177 kts | 239° |
| 2026-05-05 19:40 | 47.95806 | 10.16089 | 5130 ft | 193 kts | 238° |
| 2026-05-05 19:40 | 47.95027 | 10.14345 | 5568 ft | 211 kts | 238° |
| 2026-05-05 19:40 | 47.94195 | 10.12478 | 6005 ft | 229 kts | 240° |
| 2026-05-05 19:41 | 47.93314 | 10.10414 | 6609 ft | 241 kts | 236° |
| 2026-05-05 19:41 | 47.91952 | 10.08815 | 7226 ft | 262 kts | 208° |
| 2026-05-05 19:41 | 47.90148 | 10.08227 | 8032 ft | 273 kts | 185° |
| 2026-05-05 19:41 | 47.88256 | 10.08832 | 8781 ft | 286 kts | 163° |
| 2026-05-05 19:42 | 47.86423 | 10.10076 | 9515 ft | 292 kts | 159° |
| 2026-05-05 19:42 | 47.84708 | 10.11760 | 10277 ft | 303 kts | 139° |
| 2026-05-05 19:42 | 47.83393 | 10.14248 | 11063 ft | 310 kts | 129° |
| 2026-05-05 19:42 | 47.82035 | 10.16791 | 11548 ft | 319 kts | 141° |
| 2026-05-05 19:43 | 47.80178 | 10.18544 | 12009 ft | 323 kts | 161° |
| 2026-05-05 19:43 | 47.77988 | 10.19177 | 12672 ft | 323 kts | 182° |
| 2026-05-05 19:43 | 47.75784 | 10.18579 | 13387 ft | 325 kts | 201° |
| 2026-05-05 19:43 | 47.73874 | 10.16820 | 14151 ft | 327 kts | 221° |
| 2026-05-05 19:44 | 47.72482 | 10.14122 | 14800 ft | 336 kts | 240° |
| 2026-05-05 19:44 | 47.71783 | 10.10771 | 15447 ft | 347 kts | 259° |
| 2026-05-05 19:44 | 47.71723 | 10.08386 | 15945 ft | 351 kts | 269° |
| 2026-05-05 19:44 | 47.72114 | 10.04773 | 16617 ft | 360 kts | 283° |
| 2026-05-05 19:45 | 47.72837 | 10.01176 | 17238 ft | 365 kts | 282° |
| 2026-05-05 19:45 | 47.73331 | 9.97476 | 17901 ft | 365 kts | 275° |
| 2026-05-05 19:45 | 47.73555 | 9.92500 | 18817 ft | 367 kts | 268° |
| 2026-05-05 19:45 | 47.73542 | 9.88687 | 19379 ft | 372 kts | 266° |
| 2026-05-05 19:46 | 47.73431 | 9.84836 | 20008 ft | 373 kts | 265° |
| 2026-05-05 19:46 | 47.73347 | 9.82234 | 20540 ft | 373 kts | 265° |
| 2026-05-05 19:46 | 47.73218 | 9.78403 | 21044 ft | 379 kts | 265° |
| 2026-05-05 19:46 | 47.73117 | 9.74456 | 21484 ft | 386 kts | 265° |
| 2026-05-05 19:47 | 47.73002 | 9.70435 | 21970 ft | 391 kts | 265° |
| 2026-05-05 19:47 | 47.72887 | 9.66386 | 22502 ft | 394 kts | 265° |
| 2026-05-05 19:47 | 47.72786 | 9.62306 | 23024 ft | 397 kts | 265° |
| 2026-05-05 19:47 | 47.72680 | 9.58179 | 23523 ft | 401 kts | 265° |
| 2026-05-05 19:48 | 47.72568 | 9.54032 | 24038 ft | 404 kts | 265° |
| 2026-05-05 19:48 | 47.72677 | 9.49839 | 24539 ft | 411 kts | 277° |
| 2026-05-05 19:48 | 47.73587 | 9.45785 | 25057 ft | 419 kts | 294° |
| 2026-05-05 19:48 | 47.75264 | 9.42195 | 25530 ft | 429 kts | 310° |
| 2026-05-05 19:49 | 47.77554 | 9.39395 | 25966 ft | 438 kts | 325° |
| 2026-05-05 19:49 | 47.80334 | 9.37473 | 26392 ft | 446 kts | 338° |
| 2026-05-05 19:49 | 47.83325 | 9.36131 | 26823 ft | 450 kts | 341° |
| 2026-05-05 19:49 | 47.86328 | 9.34762 | 27226 ft | 452 kts | 339° |
| 2026-05-05 19:50 | 47.89322 | 9.33263 | 27619 ft | 455 kts | 338° |
| 2026-05-05 19:50 | 47.92315 | 9.31686 | 27995 ft | 458 kts | 337° |
| 2026-05-05 19:50 | 47.95316 | 9.30070 | 28384 ft | 460 kts | 337° |
| 2026-05-05 19:50 | 47.98337 | 9.28426 | 28741 ft | 463 kts | 337° |
| 2026-05-05 19:51 | 48.01367 | 9.26767 | 29087 ft | 466 kts | 337° |
| 2026-05-05 19:51 | 48.04383 | 9.25104 | 29360 ft | 470 kts | 337° |
| 2026-05-05 19:51 | 48.07461 | 9.23408 | 29729 ft | 471 kts | 338° |
| 2026-05-05 19:51 | 48.10540 | 9.21709 | 30031 ft | 474 kts | 338° |
| 2026-05-05 19:52 | 48.13693 | 9.20172 | 30340 ft | 478 kts | 344° |
| 2026-05-05 19:52 | 48.16976 | 9.19277 | 30686 ft | 481 kts | 352° |
| 2026-05-05 19:52 | 48.20317 | 9.19054 | 31074 ft | 482 kts | 360° |
| 2026-05-05 19:52 | 48.23674 | 9.19320 | 31463 ft | 483 kts | 4° |
| 2026-05-05 19:53 | 48.27012 | 9.19906 | 31794 ft | 484 kts | 6° |
| 2026-05-05 19:53 | 48.30357 | 9.20532 | 32176 ft | 484 kts | 6° |
| 2026-05-05 19:53 | 48.33647 | 9.21121 | 32547 ft | 483 kts | 6° |
| 2026-05-05 19:53 | 48.36991 | 9.21703 | 32868 ft | 484 kts | 6° |
| 2026-05-05 19:54 | 48.40339 | 9.22276 | 33209 ft | 485 kts | 5° |
| 2026-05-05 19:54 | 48.43690 | 9.22850 | 33537 ft | 485 kts | 5° |
| 2026-05-05 19:54 | 48.47051 | 9.23413 | 33875 ft | 485 kts | 5° |
| 2026-05-05 19:54 | 48.50399 | 9.23975 | 34226 ft | 485 kts | 5° |
| 2026-05-05 19:55 | 48.53752 | 9.24539 | 34581 ft | 484 kts | 5° |
| 2026-05-05 19:55 | 48.57086 | 9.25121 | 34954 ft | 483 kts | 7° |
| 2026-05-05 19:55 | 48.60393 | 9.26064 | 35270 ft | 483 kts | 13° |
| 2026-05-05 19:55 | 48.63567 | 9.27469 | 35615 ft | 482 kts | 19° |
| 2026-05-05 19:56 | 48.66676 | 9.29365 | 35919 ft | 481 kts | 24° |
| 2026-05-05 19:56 | 48.69700 | 9.31517 | 36265 ft | 480 kts | 26° |
| 2026-05-05 19:56 | 48.72694 | 9.33730 | 36592 ft | 479 kts | 26° |
| 2026-05-05 19:56 | 48.75691 | 9.35942 | 36807 ft | 481 kts | 26° |
| 2026-05-05 19:57 | 48.78718 | 9.38170 | 36810 ft | 484 kts | 26° |
| 2026-05-05 19:57 | 48.84760 | 9.42616 | 36818 ft | 482 kts | 26° |
| 2026-05-05 19:58 | 48.90759 | 9.47032 | 36819 ft | 478 kts | 26° |
| 2026-05-05 19:58 | 48.96808 | 9.51042 | 36817 ft | 478 kts | 18° |
| 2026-05-05 19:59 | 49.03197 | 9.53829 | 36818 ft | 478 kts | 15° |
| 2026-05-05 19:59 | 49.09613 | 9.56480 | 36817 ft | 477 kts | 15° |
| 2026-05-05 20:00 | 49.16002 | 9.59162 | 36817 ft | 476 kts | 15° |
| 2026-05-05 20:00 | 49.22352 | 9.61848 | 36817 ft | 476 kts | 16° |
| 2026-05-05 20:01 | 49.28727 | 9.64556 | 36817 ft | 476 kts | 16° |
| 2026-05-05 20:01 | 49.35104 | 9.67296 | 36816 ft | 475 kts | 18° |
| 2026-05-05 20:02 | 49.41341 | 9.70586 | 36817 ft | 474 kts | 21° |
| 2026-05-05 20:02 | 49.47514 | 9.73950 | 36817 ft | 474 kts | 20° |
| 2026-05-05 20:03 | 49.53729 | 9.77300 | 36815 ft | 473 kts | 20° |
| 2026-05-05 20:03 | 49.60040 | 9.80151 | 36814 ft | 474 kts | 11° |
| 2026-05-05 20:04 | 49.66605 | 9.80928 | 36815 ft | 474 kts | 359° |
| 2026-05-05 20:04 | 49.73204 | 9.80473 | 36813 ft | 474 kts | 358° |
| 2026-05-05 20:05 | 49.79801 | 9.80058 | 36812 ft | 474 kts | 358° |
| 2026-05-05 20:05 | 49.86353 | 9.79639 | 36810 ft | 474 kts | 358° |
| 2026-05-05 20:06 | 49.92944 | 9.79214 | 36808 ft | 474 kts | 358° |
| 2026-05-05 20:06 | 49.99542 | 9.78785 | 36806 ft | 474 kts | 358° |
| 2026-05-05 20:07 | 50.06135 | 9.78357 | 36807 ft | 474 kts | 358° |
| 2026-05-05 20:07 | 50.12715 | 9.77755 | 36806 ft | 474 kts | 356° |
| 2026-05-05 20:08 | 50.19259 | 9.77084 | 36798 ft | 474 kts | 356° |
| 2026-05-05 20:08 | 50.25839 | 9.76415 | 36795 ft | 474 kts | 356° |
| 2026-05-05 20:09 | 50.32425 | 9.75748 | 36794 ft | 474 kts | 356° |
| 2026-05-05 20:09 | 50.39013 | 9.75088 | 36793 ft | 474 kts | 356° |
| 2026-05-05 20:10 | 50.45593 | 9.74423 | 36799 ft | 474 kts | 356° |
| 2026-05-05 20:10 | 50.52171 | 9.73754 | 36799 ft | 474 kts | 356° |
| 2026-05-05 20:11 | 50.58707 | 9.73087 | 36797 ft | 474 kts | 356° |
| 2026-05-05 20:11 | 50.65293 | 9.72414 | 36795 ft | 474 kts | 355° |
| 2026-05-05 20:12 | 50.71865 | 9.71726 | 36794 ft | 473 kts | 355° |
| 2026-05-05 20:12 | 50.78443 | 9.71030 | 36793 ft | 474 kts | 355° |
| 2026-05-05 20:13 | 50.85025 | 9.70332 | 36791 ft | 474 kts | 355° |
| 2026-05-05 20:13 | 50.91569 | 9.69856 | 36791 ft | 474 kts | 358° |
| 2026-05-05 20:14 | 50.98166 | 9.69733 | 36790 ft | 474 kts | 358° |
| 2026-05-05 20:14 | 51.04765 | 9.69563 | 36791 ft | 475 kts | 358° |
| 2026-05-05 20:15 | 51.11365 | 9.69372 | 36790 ft | 474 kts | 358° |
| 2026-05-05 20:15 | 51.17915 | 9.69175 | 36799 ft | 474 kts | 357° |
| 2026-05-05 20:16 | 51.24526 | 9.69571 | 36804 ft | 476 kts | 4° |
| 2026-05-05 20:16 | 51.31115 | 9.70752 | 36807 ft | 476 kts | 5° |
| 2026-05-05 20:17 | 51.37702 | 9.71875 | 36809 ft | 477 kts | 4° |
| 2026-05-05 20:17 | 51.44305 | 9.72959 | 36816 ft | 477 kts | 4° |
| 2026-05-05 20:18 | 51.50860 | 9.74122 | 36818 ft | 477 kts | 5° |
| 2026-05-05 20:18 | 51.57457 | 9.75395 | 36819 ft | 477 kts | 5° |
| 2026-05-05 20:19 | 51.64045 | 9.76660 | 36776 ft | 477 kts | 5° |
| 2026-05-05 20:19 | 51.67334 | 9.77281 | 36383 ft | 474 kts | 5° |
| 2026-05-05 20:19 | 51.70560 | 9.77893 | 35784 ft | 473 kts | 5° |
| 2026-05-05 20:19 | 51.73834 | 9.78517 | 35180 ft | 474 kts | 5° |
| 2026-05-05 20:20 | 51.77094 | 9.79140 | 34693 ft | 471 kts | 5° |
| 2026-05-05 20:20 | 51.80345 | 9.79762 | 34211 ft | 469 kts | 5° |
| 2026-05-05 20:20 | 51.83571 | 9.80380 | 33736 ft | 467 kts | 5° |
| 2026-05-05 20:20 | 51.86787 | 9.80997 | 33266 ft | 464 kts | 5° |
| 2026-05-05 20:21 | 51.89986 | 9.81610 | 32804 ft | 462 kts | 5° |
| 2026-05-05 20:21 | 51.93174 | 9.82222 | 32347 ft | 459 kts | 5° |
| 2026-05-05 20:21 | 51.96338 | 9.82825 | 31894 ft | 457 kts | 5° |
| 2026-05-05 20:21 | 51.99441 | 9.83420 | 31452 ft | 454 kts | 5° |
| 2026-05-05 20:22 | 52.02570 | 9.84022 | 31009 ft | 452 kts | 5° |
| 2026-05-05 20:22 | 52.05677 | 9.84622 | 30570 ft | 449 kts | 5° |
| 2026-05-05 20:22 | 52.08770 | 9.85222 | 30136 ft | 446 kts | 5° |
| 2026-05-05 20:22 | 52.11849 | 9.85819 | 29708 ft | 444 kts | 5° |
| 2026-05-05 20:23 | 52.14902 | 9.86412 | 29283 ft | 441 kts | 5° |
| 2026-05-05 20:23 | 52.17942 | 9.87004 | 28855 ft | 438 kts | 5° |
| 2026-05-05 20:23 | 52.20959 | 9.87592 | 28429 ft | 436 kts | 5° |
| 2026-05-05 20:23 | 52.23956 | 9.88189 | 28002 ft | 433 kts | 6° |
| 2026-05-05 20:24 | 52.26914 | 9.89122 | 27576 ft | 431 kts | 12° |
| 2026-05-05 20:24 | 52.29774 | 9.90330 | 27159 ft | 429 kts | 14° |
| 2026-05-05 20:24 | 52.32643 | 9.91630 | 26737 ft | 426 kts | 14° |
| 2026-05-05 20:24 | 52.35490 | 9.92914 | 26317 ft | 424 kts | 14° |
| 2026-05-05 20:25 | 52.38325 | 9.94185 | 25897 ft | 421 kts | 14° |
| 2026-05-05 20:25 | 52.41139 | 9.95442 | 25480 ft | 418 kts | 14° |
| 2026-05-05 20:25 | 52.43941 | 9.96692 | 25063 ft | 415 kts | 14° |
| 2026-05-05 20:25 | 52.46718 | 9.97930 | 24649 ft | 413 kts | 14° |
| 2026-05-05 20:26 | 52.49480 | 9.99160 | 24236 ft | 410 kts | 14° |
| 2026-05-05 20:26 | 52.52224 | 10.00382 | 23825 ft | 407 kts | 14° |
| 2026-05-05 20:26 | 52.54946 | 10.01596 | 23417 ft | 404 kts | 14° |
| 2026-05-05 20:26 | 52.57612 | 10.02778 | 23018 ft | 401 kts | 14° |
| 2026-05-05 20:27 | 52.60298 | 10.03975 | 22612 ft | 398 kts | 14° |
| 2026-05-05 20:27 | 52.62964 | 10.05167 | 22209 ft | 396 kts | 13° |
| 2026-05-05 20:27 | 52.65607 | 10.06353 | 21810 ft | 393 kts | 13° |
| 2026-05-05 20:27 | 52.68236 | 10.07534 | 21415 ft | 390 kts | 13° |
| 2026-05-05 20:28 | 52.70841 | 10.08707 | 21023 ft | 387 kts | 13° |
| 2026-05-05 20:28 | 52.73426 | 10.09871 | 20635 ft | 384 kts | 13° |
| 2026-05-05 20:28 | 52.75991 | 10.10999 | 20252 ft | 380 kts | 11° |
| 2026-05-05 20:28 | 52.78543 | 10.11765 | 19876 ft | 375 kts | 5° |
| 2026-05-05 20:29 | 52.81127 | 10.12091 | 19500 ft | 371 kts | 360° |
| 2026-05-05 20:29 | 52.83699 | 10.12181 | 19127 ft | 368 kts | 358° |
| 2026-05-05 20:29 | 52.86244 | 10.12213 | 18756 ft | 365 kts | 358° |
| 2026-05-05 20:29 | 52.88773 | 10.12255 | 18387 ft | 362 kts | 358° |
| 2026-05-05 20:30 | 52.91279 | 10.12307 | 18022 ft | 359 kts | 358° |
| 2026-05-05 20:30 | 52.93770 | 10.12367 | 17657 ft | 356 kts | 358° |
| 2026-05-05 20:30 | 52.96237 | 10.12431 | 17295 ft | 354 kts | 358° |
| 2026-05-05 20:30 | 52.98684 | 10.12499 | 16936 ft | 351 kts | 358° |
| 2026-05-05 20:31 | 53.01125 | 10.12569 | 16578 ft | 348 kts | 358° |
| 2026-05-05 20:31 | 53.03505 | 10.12640 | 16228 ft | 346 kts | 358° |
| 2026-05-05 20:31 | 53.05901 | 10.12714 | 15875 ft | 343 kts | 358° |
| 2026-05-05 20:31 | 53.08285 | 10.12786 | 15525 ft | 341 kts | 358° |
| 2026-05-05 20:32 | 53.10644 | 10.12859 | 15179 ft | 339 kts | 358° |
| 2026-05-05 20:32 | 53.12993 | 10.12934 | 14834 ft | 336 kts | 358° |
| 2026-05-05 20:32 | 53.15328 | 10.13007 | 14492 ft | 334 kts | 358° |
| 2026-05-05 20:32 | 53.17638 | 10.13081 | 14154 ft | 332 kts | 358° |
| 2026-05-05 20:33 | 53.19940 | 10.13155 | 13815 ft | 329 kts | 358° |
| 2026-05-05 20:33 | 53.22222 | 10.13229 | 13480 ft | 327 kts | 358° |
| 2026-05-05 20:33 | 53.24276 | 10.13296 | 13178 ft | 325 kts | 358° |
| 2026-05-05 20:33 | 53.26527 | 10.13369 | 12849 ft | 323 kts | 358° |
| 2026-05-05 20:34 | 53.28769 | 10.13442 | 12520 ft | 321 kts | 358° |
| 2026-05-05 20:34 | 53.30992 | 10.13515 | 12192 ft | 319 kts | 358° |
| 2026-05-05 20:34 | 53.33203 | 10.13587 | 11863 ft | 317 kts | 358° |
| 2026-05-05 20:34 | 53.35396 | 10.13659 | 11536 ft | 315 kts | 359° |
| 2026-05-05 20:35 | 53.37581 | 10.13730 | 11208 ft | 313 kts | 359° |
| 2026-05-05 20:35 | 53.39752 | 10.13796 | 10890 ft | 311 kts | 358° |
| 2026-05-05 20:35 | 53.41895 | 10.13799 | 10723 ft | 305 kts | 358° |
| 2026-05-05 20:35 | 53.43975 | 10.13787 | 10571 ft | 302 kts | 358° |
| 2026-05-05 20:36 | 53.46069 | 10.13775 | 10417 ft | 300 kts | 358° |
| 2026-05-05 20:36 | 53.48150 | 10.13764 | 10265 ft | 298 kts | 358° |
| 2026-05-05 20:36 | 53.50183 | 10.13753 | 10108 ft | 288 kts | 358° |
| 2026-05-05 20:36 | 53.52164 | 10.13744 | 9962 ft | 281 kts | 358° |
| 2026-05-05 20:37 | 53.54105 | 10.13735 | 9822 ft | 279 kts | 358° |
| 2026-05-05 20:37 | 53.56040 | 10.13726 | 9678 ft | 277 kts | 358° |
| 2026-05-05 20:37 | 53.57963 | 10.13716 | 9534 ft | 275 kts | 359° |
| 2026-05-05 20:37 | 53.59871 | 10.13708 | 9392 ft | 273 kts | 359° |
| 2026-05-05 20:38 | 53.61736 | 10.13699 | 9245 ft | 262 kts | 359° |
| 2026-05-05 20:38 | 53.63504 | 10.13671 | 9112 ft | 255 kts | 355° |
| 2026-05-05 20:38 | 53.65228 | 10.13119 | 8981 ft | 251 kts | 342° |
| 2026-05-05 20:38 | 53.66842 | 10.12056 | 8852 ft | 247 kts | 335° |
| 2026-05-05 20:39 | 53.68388 | 10.10803 | 8724 ft | 247 kts | 333° |
| 2026-05-05 20:39 | 53.69903 | 10.09461 | 8595 ft | 246 kts | 332° |
| 2026-05-05 20:39 | 53.71417 | 10.08108 | 8467 ft | 246 kts | 333° |
| 2026-05-05 20:39 | 53.72938 | 10.06795 | 8339 ft | 245 kts | 333° |
| 2026-05-05 20:40 | 53.74454 | 10.05486 | 8213 ft | 245 kts | 333° |
| 2026-05-05 20:40 | 53.75947 | 10.04188 | 8086 ft | 244 kts | 330° |
| 2026-05-05 20:40 | 53.77219 | 10.02314 | 7949 ft | 244 kts | 323° |
| 2026-05-05 20:40 | 53.78732 | 10.01066 | 7840 ft | 242 kts | 340° |
| 2026-05-05 20:41 | 53.80295 | 10.00010 | 7716 ft | 242 kts | 338° |
| 2026-05-05 20:41 | 53.81847 | 9.98933 | 7590 ft | 241 kts | 338° |
| 2026-05-05 20:41 | 53.83381 | 9.97777 | 7465 ft | 241 kts | 334° |
| 2026-05-05 20:41 | 53.84873 | 9.96490 | 7353 ft | 240 kts | 333° |
| 2026-05-05 20:42 | 53.86352 | 9.95192 | 7290 ft | 240 kts | 333° |
| 2026-05-05 20:42 | 53.87838 | 9.93884 | 7172 ft | 240 kts | 333° |
| 2026-05-05 20:42 | 53.89318 | 9.92591 | 7055 ft | 239 kts | 334° |
| 2026-05-05 20:42 | 53.90794 | 9.91303 | 6935 ft | 238 kts | 334° |
| 2026-05-05 20:43 | 53.92255 | 9.90043 | 6828 ft | 238 kts | 335° |
| 2026-05-05 20:43 | 53.93763 | 9.88892 | 6719 ft | 238 kts | 335° |
| 2026-05-05 20:43 | 53.95223 | 9.87569 | 6584 ft | 237 kts | 332° |
| 2026-05-05 20:43 | 53.96672 | 9.86232 | 6455 ft | 236 kts | 333° |
| 2026-05-05 20:44 | 53.98124 | 9.84937 | 6329 ft | 236 kts | 334° |
| 2026-05-05 20:44 | 53.99574 | 9.83643 | 6205 ft | 235 kts | 334° |
| 2026-05-05 20:44 | 54.01019 | 9.82364 | 6085 ft | 235 kts | 334° |
| 2026-05-05 20:44 | 54.02474 | 9.81088 | 5963 ft | 234 kts | 334° |
| 2026-05-05 20:45 | 54.04914 | 9.77637 | 5714 ft | 238 kts | 297° |
| 2026-05-05 20:45 | 54.05233 | 9.74859 | 5526 ft | 245 kts | 269° |
| 2026-05-05 20:45 | 54.04865 | 9.72045 | 5381 ft | 245 kts | 251° |
| 2026-05-05 20:46 | 54.04117 | 9.69443 | 5239 ft | 246 kts | 237° |
| 2026-05-05 20:46 | 54.02847 | 9.67550 | 5094 ft | 247 kts | 205° |
| 2026-05-05 20:46 | 54.01179 | 9.67032 | 4926 ft | 247 kts | 174° |
| 2026-05-05 20:46 | 53.99539 | 9.67789 | 4791 ft | 242 kts | 158° |
| 2026-05-05 20:47 | 53.98014 | 9.68977 | 4653 ft | 241 kts | 152° |
| 2026-05-05 20:47 | 53.96536 | 9.70305 | 4519 ft | 240 kts | 150° |
| 2026-05-05 20:47 | 53.95062 | 9.71633 | 4389 ft | 240 kts | 150° |
| 2026-05-05 20:47 | 53.93607 | 9.72934 | 4261 ft | 239 kts | 150° |
| 2026-05-05 20:48 | 53.92132 | 9.74241 | 4139 ft | 240 kts | 150° |
| 2026-05-05 20:48 | 53.90654 | 9.75548 | 4009 ft | 240 kts | 149° |
| 2026-05-05 20:48 | 53.89174 | 9.76847 | 4013 ft | 239 kts | 150° |
| 2026-05-05 20:48 | 53.87711 | 9.78132 | 4001 ft | 234 kts | 149° |
| 2026-05-05 20:49 | 53.86281 | 9.79384 | 3998 ft | 228 kts | 149° |
| 2026-05-05 20:49 | 53.84883 | 9.80606 | 3999 ft | 225 kts | 149° |
| 2026-05-05 20:49 | 53.83496 | 9.81819 | 3920 ft | 224 kts | 149° |
| 2026-05-05 20:49 | 53.82103 | 9.83036 | 3673 ft | 225 kts | 149° |
| 2026-05-05 20:50 | 53.80732 | 9.84232 | 3383 ft | 225 kts | 149° |
| 2026-05-05 20:50 | 53.79357 | 9.85431 | 3085 ft | 220 kts | 149° |
| 2026-05-05 20:50 | 53.78013 | 9.86602 | 2788 ft | 213 kts | 149° |
| 2026-05-05 20:50 | 53.76720 | 9.87728 | 2511 ft | 205 kts | 149° |
| 2026-05-05 20:51 | 53.75486 | 9.88801 | 2246 ft | 194 kts | 149° |
| 2026-05-05 20:51 | 53.74324 | 9.89812 | 1980 ft | 183 kts | 149° |
| 2026-05-05 20:51 | 53.73234 | 9.90758 | 1757 ft | 170 kts | 149° |
| 2026-05-05 20:51 | 53.72216 | 9.91643 | 1534 ft | 159 kts | 149° |
| 2026-05-05 20:52 | 53.71271 | 9.92465 | 1323 ft | 152 kts | 150° |
| 2026-05-05 20:52 | 53.70348 | 9.93265 | 1132 ft | 148 kts | 150° |
| 2026-05-05 20:52 | 53.69438 | 9.94054 | 935 ft | 146 kts | 150° |
| 2026-05-05 20:52 | 53.68538 | 9.94835 | 747 ft | 145 kts | 150° |
| 2026-05-05 20:53 | 53.67639 | 9.95613 | 559 ft | 145 kts | 150° |
| 2026-05-05 20:53 | 53.66741 | 9.96385 | 363 ft | 145 kts | 151° |
| 2026-05-05 20:53 | 53.65851 | 9.97158 | 175 ft | 143 kts | 150° |
| 2026-05-05 20:53 | 53.64977 | 9.97940 | 62 ft | 138 kts | 152° |
| 2026-05-05 20:54 | 53.64336 | 9.98478 | 61 ft | 71 kts | 146° |
| 2026-05-05 20:54 | 53.63919 | 9.98821 | 61 ft | 60 kts | 154° |
| 2026-05-05 20:54 | 53.63596 | 9.99112 | 61 ft | 46 kts | 152° |
| 2026-05-05 20:54 | 53.63374 | 9.99306 | 61 ft | 27 kts | 141° |
| 2026-05-05 20:55 | 53.63288 | 9.99539 | 61 ft | 21 kts | 104° |
| 2026-05-05 20:55 | 53.63278 | 9.99614 | 61 ft | 0 kts | 100° |
| 2026-05-05 20:56 | 53.63275 | 9.99640 | 61 ft | 8 kts | 106° |
| 2026-05-05 20:56 | 53.63216 | 9.99754 | 61 ft | 15 kts | 150° |
| 2026-05-05 20:56 | 53.63114 | 9.99837 | 61 ft | 21 kts | 154° |
| 2026-05-05 20:57 | 53.63002 | 9.99946 | 61 ft | 17 kts | 149° |
| 2026-05-05 20:57 | 53.62962 | 10.00096 | 61 ft | 15 kts | 56° |
| 2026-05-05 20:57 | 53.63030 | 10.00209 | 61 ft | 11 kts | 40° |
| 2026-05-05 20:57 | 53.63095 | 10.00250 | 61 ft | 9 kts | 358° |
| 2026-05-05 20:58 | 53.63130 | 10.00273 | 61 ft | 3 kts | 64° |
| 2026-05-05 20:58 | 53.63140 | 10.00327 | 61 ft | 5 kts | 80° |
| 2026-05-05 20:58 | 53.63142 | 10.00374 | 61 ft | 4 kts | 86° |
| 2026-05-05 20:58 | 53.63143 | 10.00387 | 61 ft | 0 kts | 86° |
| 2026-05-05 20:59 | 53.63143 | 10.00394 | 61 ft | 0 kts | 86° |